Time;durP1;ratioP1;P1;durP2;ratioP2;P2;SDS_P1;SDS_P2;PMS_P1;PMS_P2;Temp;Humidity;BMP_temperature;BMP_pressure;BME280_temperature;BME280_humidity;BME280_pressure;Samples;Min_cycle;Max_cycle;Signal;HPM_P1;HPM_P2
2022/11/24 00:00:46;;;;;;;7.33;3.30;;;;;7.70;98247.00;;;;16595772;28;20223;-46
2022/11/24 00:08:50;;;;;;;5.57;3.63;;;;;7.90;98238.00;;;;16602908;28;20592;-46
2022/11/24 00:16:52;;;;;;;7.30;3.70;;;;;8.10;98231.00;;;;16606678;28;20597;-46
2022/11/24 00:24:56;;;;;;;3.47;3.07;;;;;8.20;98240.00;;;;16603566;28;20246;-47
2022/11/24 00:32:59;;;;;;;8.60;4.30;;;;;8.20;98249.00;;;;16597179;28;20229;-46
2022/11/24 00:41:03;;;;;;;8.30;3.40;;;;;8.20;98263.00;;;;16608421;28;20231;-46
2022/11/24 00:49:06;;;;;;;7.97;3.33;;;;;9.10;98244.00;;;;16600448;28;20242;-45
2022/11/24 00:57:10;;;;;;;11.27;3.90;;;;;9.10;98261.00;;;;16611052;28;20233;-46
2022/11/24 01:05:13;;;;;;;6.17;3.20;;;;;9.50;98265.00;;;;16607846;28;20231;-46
2022/11/24 01:13:17;;;;;;;6.10;3.40;;;;;9.40;98285.00;;;;16614195;28;20229;-47
2022/11/24 01:21:20;;;;;;;8.33;3.70;;;;;8.70;98303.00;;;;16608411;28;20717;-45
2022/11/24 01:29:24;;;;;;;6.67;3.87;;;;;9.50;98294.00;;;;16606723;28;20232;-47
2022/11/24 01:37:27;;;;;;;9.67;4.10;;;;;8.70;98313.00;;;;16604302;28;20722;-46
2022/11/24 01:45:39;;;;;;;16.23;11.10;;;;;9.40;98311.00;;;;16607778;28;20229;-46
2022/11/24 01:53:44;;;;;;;5.37;3.03;;;;;8.50;98327.00;;;;16609050;28;20199;-47
2022/11/24 02:01:50;;;;;;;6.27;2.83;;;;;9.20;98331.00;;;;16600923;28;20229;-46
2022/11/24 02:09:55;;;;;;;8.50;3.40;;;;;9.20;98332.00;;;;16608875;28;20223;-47
2022/11/24 02:18:01;;;;;;;7.27;2.90;;;;;9.20;98327.00;;;;16600042;28;20211;-46
2022/11/24 02:26:08;;;;;;;4.73;4.33;;;;;9.70;98325.00;;;;16604846;28;20230;-46
2022/11/24 02:34:12;;;;;;;5.90;2.70;;;;;10.00;98330.00;;;;16600381;28;20258;-46
2022/11/24 02:42:15;;;;;;;8.40;3.40;;;;;9.50;98337.00;;;;16593214;28;20223;-47
2022/11/24 02:50:19;;;;;;;4.53;2.90;;;;;9.20;98338.00;;;;16601912;28;20727;-46
2022/11/24 02:58:22;;;;;;;4.30;2.77;;;;;9.20;98347.00;;;;16599971;28;20562;-46
2022/11/24 03:06:26;;;;;;;8.23;2.47;;;;;9.10;98340.00;;;;16595662;28;20274;-47
2022/11/24 03:14:29;;;;;;;4.23;2.30;;;;;9.00;98355.00;;;;16606118;28;20199;-46
2022/11/24 03:22:33;;;;;;;3.73;2.30;;;;;8.30;98375.00;;;;16602856;28;20237;-45
2022/11/24 03:30:35;;;;;;;6.20;3.30;;;;;8.10;98373.00;;;;16593642;28;20241;-47
2022/11/24 03:38:39;;;;;;;8.40;2.53;;;;;8.00;98379.00;;;;16591183;28;20908;-46
2022/11/24 03:46:42;;;;;;;7.77;2.37;;;;;7.60;98399.00;;;;16596496;28;20214;-46
2022/11/24 03:54:46;;;;;;;3.67;2.33;;;;;8.00;98419.00;;;;16614291;28;20208;-47
2022/11/24 04:02:49;;;;;;;4.13;2.17;;;;;8.90;98406.00;;;;16607141;28;20234;-46
2022/11/24 04:10:54;;;;;;;7.73;2.50;;;;;9.30;98401.00;;;;16613064;28;20231;-46
2022/11/24 04:18:57;;;;;;;4.03;2.20;;;;;9.60;98409.00;;;;16611357;28;20223;-46
2022/11/24 04:27:00;;;;;;;4.73;2.50;;;;;9.60;98416.00;;;;16608302;28;20274;-47
2022/11/24 04:35:03;;;;;;;1.90;1.70;;;;;9.50;98423.00;;;;16608443;28;20239;-46
2022/11/24 04:43:07;;;;;;;5.97;3.10;;;;;8.50;98433.00;;;;16604558;28;20561;-47
2022/11/24 04:51:10;;;;;;;2.87;2.00;;;;;7.40;98447.00;;;;16599745;28;20286;-46
2022/11/24 04:59:15;;;;;;;4.50;1.70;;;;;7.40;98469.00;;;;16605250;28;20238;-47
2022/11/24 05:07:18;;;;;;;2.80;1.67;;;;;8.30;98448.00;;;;16606072;28;20242;-46
2022/11/24 05:15:22;;;;;;;5.70;3.00;;;;;9.00;98448.00;;;;16609865;28;20584;-46
2022/11/24 05:23:25;;;;;;;7.80;2.97;;;;;9.30;98434.00;;;;16610232;28;20210;-45
2022/11/24 05:31:29;;;;;;;7.00;2.60;;;;;9.30;98447.00;;;;16608380;28;20249;-46
2022/11/24 05:39:32;;;;;;;4.57;2.43;;;;;9.20;98454.00;;;;16610722;28;20273;-46
2022/11/24 05:47:36;;;;;;;8.50;3.53;;;;;8.90;98467.00;;;;16615873;28;20234;-46
2022/11/24 05:55:40;;;;;;;6.63;2.90;;;;;9.30;98465.00;;;;16623362;28;20198;-47
2022/11/24 06:03:44;;;;;;;16.07;3.17;;;;;9.50;98452.00;;;;16645491;28;20198;-48
2022/11/24 06:11:48;;;;;;;5.20;2.73;;;;;9.50;98451.00;;;;16615403;28;20268;-46
2022/11/24 06:19:52;;;;;;;4.30;2.33;;;;;9.60;98453.00;;;;16623161;28;20203;-47
2022/11/24 06:27:54;;;;;;;8.10;5.10;;;;;9.80;98451.00;;;;16601520;28;20710;-47
2022/11/24 06:36:02;;;;;;;14.40;3.30;;;;;9.80;98463.00;;;;16605470;28;20510;-46
2022/11/24 06:44:05;;;;;;;10.10;4.33;;;;;9.90;98474.00;;;;16607074;28;20214;-47
2022/11/24 06:52:09;;;;;;;13.97;4.53;;;;;10.10;98475.00;;;;16602124;28;20261;-47
2022/11/24 07:00:12;;;;;;;19.00;5.23;;;;;10.10;98486.00;;;;16625657;28;20285;-46
2022/11/24 07:08:16;;;;;;;7.23;4.00;;;;;8.90;98517.00;;;;16630434;28;20288;-46
2022/11/24 07:16:20;;;;;;;18.27;10.67;;;;;8.70;98536.00;;;;16629827;28;20725;-46
2022/11/24 07:24:24;;;;;;;6.90;4.80;;;;;9.00;98543.00;;;;16623924;28;20851;-46
2022/11/24 07:32:27;;;;;;;8.80;3.80;;;;;9.30;98554.00;;;;16627346;28;20353;-47
2022/11/24 07:40:31;;;;;;;10.00;3.43;;;;;9.00;98590.00;;;;16617537;28;20369;-47
2022/11/24 07:48:33;;;;;;;8.90;6.80;;;;;10.10;98574.00;;;;16615778;28;20222;-46
2022/11/24 07:56:37;;;;;;;8.27;5.70;;;;;9.90;98606.00;;;;16608043;28;20302;-45
2022/11/24 08:04:39;;;;;;;5.50;4.97;;;;;10.60;98602.00;;;;16606196;28;20306;-47
2022/11/24 08:12:43;;;;;;;15.43;5.07;;;;;11.00;98604.00;;;;16618540;28;20302;-47
2022/11/24 08:20:46;;;;;;;11.53;3.80;;;;;11.00;98593.00;;;;16589957;28;20309;-46
2022/11/24 08:28:54;;;;;;;5.67;3.23;;;;;11.50;98594.00;;;;16585761;28;20761;-46
2022/11/24 08:36:57;;;;;;;12.50;4.73;;;;;11.40;98609.00;;;;16612738;28;20227;-47
2022/11/24 08:45:00;;;;;;;5.03;2.63;;;;;11.40;98618.00;;;;16610126;28;20313;-47
2022/11/24 08:53:03;;;;;;;8.60;3.13;;;;;11.30;98616.00;;;;16628941;28;20276;-46
2022/11/24 09:01:08;;;;;;;8.43;3.47;;;;;11.60;98633.00;;;;16619792;28;20225;-46
2022/11/24 09:09:11;;;;;;;5.97;3.37;;;;;11.30;98634.00;;;;16609439;28;20353;-46
2022/11/24 09:17:15;;;;;;;10.70;4.90;;;;;11.30;98633.00;;;;16617128;28;20221;-47
2022/11/24 09:25:18;;;;;;;5.57;3.30;;;;;11.80;98627.00;;;;16607470;28;20207;-46
2022/11/24 09:33:22;;;;;;;4.57;2.00;;;;;11.50;98648.00;;;;16624175;28;20615;-46
2022/11/24 09:41:44;;;;;;;3.77;1.17;;;;;11.70;98667.00;;;;16629594;28;20219;-47
2022/11/24 09:49:53;;;;;;;2.60;1.10;;;;;11.70;98680.00;;;;16612654;28;20748;-47
2022/11/24 09:58:02;;;;;;;3.17;1.10;;;;;11.70;98691.00;;;;16583015;28;20313;-46
2022/11/24 10:06:16;;;;;;;2.60;2.37;;;;;11.40;98706.00;;;;16594510;28;20222;-45
2022/11/24 10:14:36;;;;;;;2.17;1.07;;;;;11.90;98696.00;;;;16605250;28;20217;-46
2022/11/24 10:22:47;;;;;;;1.70;1.47;;;;;11.90;98683.00;;;;16600480;28;20251;-46
2022/11/24 10:30:50;;;;;;;2.27;1.60;;;;;12.60;98686.00;;;;16601389;28;20767;-46
2022/11/24 10:38:59;;;;;;;2.40;2.20;;;;;12.80;98694.00;;;;16622050;28;20243;-46
2022/11/24 10:47:01;;;;;;;1.73;1.20;;;;;13.00;98692.00;;;;16597971;28;20284;-47
2022/11/24 10:55:06;;;;;;;2.47;1.00;;;;;13.50;98694.00;;;;16603118;28;20198;-47
2022/11/24 11:03:18;;;;;;;1.30;0.90;;;;;13.80;98689.00;;;;16614925;28;20713;-46
2022/11/24 11:11:27;;;;;;;0.97;0.80;;;;;13.50;98681.00;;;;16602244;28;20258;-47
2022/11/24 11:19:35;;;;;;;1.20;0.93;;;;;12.70;98698.00;;;;16587100;28;20331;-47
2022/11/24 11:27:39;;;;;;;1.90;1.70;;;;;13.10;98702.00;;;;16600017;28;20287;-46
2022/11/24 11:35:42;;;;;;;1.40;1.20;;;;;14.20;98696.00;;;;16602590;28;20215;-46
2022/11/24 11:43:46;;;;;;;1.00;0.83;;;;;13.70;98681.00;;;;16597610;28;20234;-47
2022/11/24 11:52:05;;;;;;;3.03;1.27;;;;;13.80;98690.00;;;;16598141;28;20246;-46
2022/11/24 12:00:12;;;;;;;2.17;1.00;;;;;12.80;98693.00;;;;16597668;28;20274;-45
2022/11/24 12:08:24;;;;;;;5.00;1.40;;;;;13.50;98689.00;;;;16596015;28;20254;-47
2022/11/24 12:16:39;;;;;;;2.90;1.47;;;;;14.30;98701.00;;;;16598394;28;20650;-45
2022/11/24 12:24:46;;;;;;;6.73;2.17;;;;;14.70;98701.00;;;;16611695;28;20282;-47
2022/11/24 12:33:05;;;;;;;3.67;1.80;;;;;15.50;98694.00;;;;16607301;28;20219;-46
2022/11/24 12:41:29;;;;;;;1.80;1.67;;;;;15.60;98707.00;;;;16609439;28;20258;-46
2022/11/24 12:49:38;;;;;;;3.03;1.47;;;;;15.10;98696.00;;;;16600139;28;20289;-47
2022/11/24 12:57:47;;;;;;;4.63;1.40;;;;;14.60;98704.00;;;;16605674;28;20253;-46
2022/11/24 13:05:57;;;;;;;2.73;1.10;;;;;14.70;98715.00;;;;16608050;28;20302;-47
2022/11/24 13:14:01;;;;;;;3.80;1.50;;;;;14.60;98702.00;;;;16604370;28;20281;-46
2022/11/24 13:22:16;;;;;;;4.77;1.73;;;;;14.90;98695.00;;;;16602775;28;20623;-46
2022/11/24 13:30:55;;;;;;;3.80;1.53;;;;;14.20;98711.00;;;;16602425;28;20800;-46
2022/11/24 13:38:59;;;;;;;5.67;1.90;;;;;13.80;98721.00;;;;16600068;28;20874;-46
2022/11/24 13:47:03;;;;;;;7.33;4.40;;;;;13.80;98733.00;;;;16602125;28;20258;-46
2022/11/24 13:55:20;;;;;;;4.00;2.13;;;;;13.70;98730.00;;;;16604456;28;20198;-46
2022/11/24 14:03:27;;;;;;;3.83;2.37;;;;;13.80;98729.00;;;;16623364;28;20266;-47
2022/11/24 14:11:31;;;;;;;6.73;2.13;;;;;13.90;98729.00;;;;16640769;28;20219;-47
2022/11/24 14:19:33;;;;;;;22.10;17.00;;;;;14.70;98714.00;;;;16637066;28;20341;-46
2022/11/24 14:27:38;;;;;;;10.30;2.90;;;;;15.10;98710.00;;;;16615558;28;20231;-47
2022/11/24 14:35:44;;;;;;;3.30;1.87;;;;;14.60;98725.00;;;;16623204;28;20613;-46
2022/11/24 14:43:48;;;;;;;8.20;5.63;;;;;14.00;98737.00;;;;16629897;28;20804;-46
2022/11/24 14:51:55;;;;;;;4.67;2.60;;;;;13.60;98747.00;;;;16619714;28;20273;-45
2022/11/24 15:00:16;;;;;;;5.77;3.80;;;;;12.30;98772.00;;;;16626587;28;20284;-46
2022/11/24 15:08:19;;;;;;;5.77;2.87;;;;;12.00;98777.00;;;;16623103;28;20625;-45
2022/11/24 15:16:25;;;;;;;13.90;4.93;;;;;11.80;98786.00;;;;16620042;28;20704;-45
2022/11/24 15:24:27;;;;;;;7.03;4.30;;;;;12.00;98792.00;;;;16617675;28;20258;-45
2022/11/24 15:32:31;;;;;;;7.00;3.23;;;;;12.00;98792.00;;;;16604635;28;20231;-46
2022/11/24 15:40:34;;;;;;;9.87;5.50;;;;;12.20;98813.00;;;;16598326;28;20279;-46
2022/11/24 15:48:37;;;;;;;12.40;7.37;;;;;11.50;98806.00;;;;16620073;28;20297;-47
2022/11/24 15:56:40;;;;;;;11.17;5.23;;;;;10.80;98827.00;;;;16608243;28;20274;-46
2022/11/24 16:04:44;;;;;;;6.93;4.60;;;;;10.70;98832.00;;;;16609370;28;20667;-46
2022/11/24 16:12:47;;;;;;;14.60;5.33;;;;;10.30;98832.00;;;;16601806;28;20235;-45
2022/11/24 16:20:51;;;;;;;12.70;6.70;;;;;9.60;98843.00;;;;16605652;28;20268;-45
2022/11/24 16:28:53;;;;;;;12.70;7.27;;;;;9.20;98848.00;;;;16605530;28;20321;-45
2022/11/24 16:36:57;;;;;;;9.07;5.00;;;;;9.10;98859.00;;;;16618064;28;20246;-45
2022/11/24 16:45:00;;;;;;;18.23;7.40;;;;;9.30;98856.00;;;;16613271;28;20206;-45
2022/11/24 16:53:04;;;;;;;12.57;9.50;;;;;9.10;98861.00;;;;16624317;28;20234;-46
2022/11/24 17:01:07;;;;;;;8.47;6.10;;;;;8.50;98869.00;;;;16630945;28;20303;-45
2022/11/24 17:09:11;;;;;;;11.63;6.57;;;;;8.20;98857.00;;;;16635869;28;20234;-46
2022/11/24 17:17:14;;;;;;;8.77;6.00;;;;;8.20;98862.00;;;;16642661;28;20241;-45
2022/11/24 17:25:18;;;;;;;7.50;5.97;;;;;8.00;98870.00;;;;16619739;28;20199;-45
2022/11/24 17:33:20;;;;;;;11.10;6.00;;;;;7.90;98877.00;;;;16614292;28;20230;-45
2022/11/24 17:41:24;;;;;;;11.43;6.07;;;;;8.00;98868.00;;;;16611161;28;20234;-45
2022/11/24 17:49:27;;;;;;;13.03;5.83;;;;;7.70;98877.00;;;;16592564;28;20572;-46
2022/11/24 17:57:31;;;;;;;10.80;5.60;;;;;7.70;98877.00;;;;16586149;28;20230;-45
2022/11/24 18:05:36;;;;;;;11.73;5.57;;;;;7.50;98886.00;;;;16583598;28;20203;-45
2022/11/24 18:13:40;;;;;;;14.60;6.80;;;;;7.70;98883.00;;;;16584072;28;20237;-45
2022/11/24 18:21:44;;;;;;;10.20;6.60;;;;;7.40;98897.00;;;;16585424;28;20230;-45
2022/11/24 18:29:48;;;;;;;16.13;6.37;;;;;7.30;98889.00;;;;16586442;28;20304;-45
2022/11/24 18:37:51;;;;;;;13.67;7.10;;;;;7.10;98890.00;;;;16598094;28;20316;-44
2022/11/24 18:45:55;;;;;;;8.70;7.33;;;;;7.60;98865.00;;;;16593891;28;20233;-46
2022/11/24 18:53:57;;;;;;;15.53;10.80;;;;;7.30;98872.00;;;;16588060;28;20217;-45
2022/11/24 19:02:01;;;;;;;9.40;7.40;;;;;7.60;98883.00;;;;16614627;28;20899;-45
2022/11/24 19:10:05;;;;;;;26.83;6.77;;;;;7.80;98868.00;;;;16625047;28;20224;-47
2022/11/24 19:18:08;;;;;;;15.93;10.67;;;;;7.20;98875.00;;;;16630438;28;20889;-44
2022/11/24 19:26:11;;;;;;;19.40;8.77;;;;;7.10;98884.00;;;;16631987;28;20738;-45
2022/11/24 19:34:15;;;;;;;12.70;6.97;;;;;7.20;98883.00;;;;16621958;28;20216;-45
2022/11/24 19:42:18;;;;;;;15.37;8.90;;;;;7.40;98870.00;;;;16615941;28;20797;-46
2022/11/24 19:50:22;;;;;;;13.43;10.17;;;;;7.80;98864.00;;;;16618732;28;20227;-46
2022/11/24 19:58:24;;;;;;;19.93;11.10;;;;;6.90;98864.00;;;;16599114;28;20244;-46
2022/11/24 20:06:30;;;;;;;17.57;10.23;;;;;7.50;98865.00;;;;16617622;28;20779;-46
2022/11/24 20:23:40;;;;;;;15.23;10.57;;;;;7.10;98865.00;;;;16412059;28;20693;-46
2022/11/24 20:31:44;;;;;;;16.80;11.30;;;;;6.90;98882.00;;;;16433682;28;20378;-46
2022/11/24 20:39:48;;;;;;;15.60;9.67;;;;;6.40;98878.00;;;;16425986;28;20669;-46
2022/11/24 20:47:50;;;;;;;14.37;8.90;;;;;6.60;98880.00;;;;16452377;28;20245;-46
2022/11/24 20:56:01;;;;;;;14.23;8.97;;;;;6.30;98877.00;;;;16610470;28;20221;-45
2022/11/24 21:04:04;;;;;;;16.80;11.80;;;;;6.40;98874.00;;;;16580022;28;20237;-46
2022/11/24 21:12:08;;;;;;;19.70;11.00;;;;;6.20;98874.00;;;;16616250;28;20308;-46
2022/11/24 21:20:11;;;;;;;20.00;10.63;;;;;6.20;98866.00;;;;16638640;28;20225;-46
2022/11/24 21:37:38;;;;;;;21.43;11.40;;;;;6.10;98846.00;;;;16621232;28;21394;-46
2022/11/24 21:45:40;;;;;;;27.50;15.40;;;;;6.10;98873.00;;;;16627791;28;20227;-46
2022/11/24 21:53:45;;;;;;;14.83;8.90;;;;;6.30;98856.00;;;;16632121;28;20617;-46
2022/11/24 22:01:47;;;;;;;18.20;11.27;;;;;6.30;98861.00;;;;16623682;28;20738;-46
2022/11/24 22:09:51;;;;;;;27.00;17.80;;;;;6.10;98865.00;;;;16627571;28;20227;-46
2022/11/24 22:17:53;;;;;;;17.87;12.07;;;;;5.90;98870.00;;;;16632270;28;20232;-46
2022/11/24 22:26:02;;;;;;;12.30;10.03;;;;;5.80;98872.00;;;;16635416;28;20711;-46
2022/11/24 22:34:04;;;;;;;18.03;10.30;;;;;5.50;98868.00;;;;16629187;28;20233;-46
2022/11/24 22:42:08;;;;;;;16.90;10.80;;;;;5.90;98871.00;;;;16609659;28;20308;-46
2022/11/24 22:50:12;;;;;;;13.60;10.10;;;;;5.80;98870.00;;;;16587446;28;20307;-46
2022/11/24 22:58:16;;;;;;;13.97;10.17;;;;;5.50;98879.00;;;;16584992;28;20691;-46
2022/11/24 23:06:20;;;;;;;17.83;12.60;;;;;6.20;98883.00;;;;16582510;28;20338;-45
2022/11/24 23:14:25;;;;;;;16.30;11.50;;;;;6.10;98878.00;;;;16600154;28;20401;-46
2022/11/24 23:22:27;;;;;;;14.63;11.40;;;;;6.70;98870.00;;;;16616594;28;20847;-47
2022/11/24 23:30:31;;;;;;;18.47;13.40;;;;;7.10;98867.00;;;;16600949;28;20713;-46
2022/11/24 23:38:34;;;;;;;15.00;12.83;;;;;7.20;98863.00;;;;16636378;28;20292;-46
2022/11/24 23:46:38;;;;;;;15.43;12.10;;;;;7.20;98862.00;;;;16628141;28;20308;-46
2022/11/24 23:54:41;;;;;;;11.67;9.87;;;;;6.00;98872.00;;;;16601550;28;20292;-46
